createdAt,value
2019-01-02T00:03:27.986Z,61.30
2019-01-02T00:06:09.778Z,60.80
2019-01-02T00:08:50.234Z,61.00
2019-01-02T00:11:30.937Z,60.90
2019-01-02T00:14:11.707Z,60.90
2019-01-02T00:16:52.414Z,60.80
2019-01-02T00:19:33.563Z,60.80
2019-01-02T00:22:14.479Z,60.60
2019-01-02T00:24:55.071Z,60.70
2019-01-02T00:27:36.007Z,60.50
2019-01-02T00:30:05.011Z,60.40
2019-01-02T00:32:33.880Z,60.80
2019-01-02T00:35:02.748Z,60.50
2019-01-02T00:37:51.570Z,60.50
2019-01-02T00:40:20.163Z,60.70
2019-01-02T00:42:49.888Z,60.60
2019-01-02T00:45:22.328Z,60.70
2019-01-02T00:51:16.226Z,60.60
2019-01-02T00:53:45.083Z,60.60
2019-01-02T00:56:14.170Z,60.70
2019-01-02T00:58:43.075Z,60.50
2019-01-02T01:25:41.010Z,60.70
2019-01-02T01:28:10.148Z,60.50
2019-01-02T01:30:38.758Z,60.40
2019-01-02T01:46:12.787Z,60.30
2019-01-02T01:49:19.249Z,60.40
2019-01-02T01:51:48.347Z,60.40
2019-01-02T01:54:17.196Z,60.10
2019-01-02T01:56:45.765Z,60.00
2019-01-02T01:59:15.144Z,60.10
2019-01-02T02:01:44.244Z,60.10
2019-01-02T02:04:12.861Z,60.10
2019-01-02T02:06:41.420Z,59.80
2019-01-02T02:09:10.055Z,60.00
2019-01-02T02:11:38.915Z,59.90
2019-01-02T02:14:07.759Z,60.00
2019-01-02T02:20:03.187Z,60.10
2019-01-02T02:22:53.343Z,60.30
2019-01-02T02:28:11.876Z,60.20
2019-01-02T02:30:59.777Z,60.20
2019-01-02T02:36:29.377Z,60.50
2019-01-02T02:39:19.067Z,60.30
2019-01-02T02:42:08.679Z,60.20
2019-01-02T02:44:58.350Z,60.60
2019-01-02T02:47:47.954Z,60.70
2019-01-02T02:50:38.340Z,60.50
2019-01-02T02:53:09.014Z,60.30
2019-01-02T02:55:58.639Z,60.30
2019-01-02T02:58:27.746Z,60.60
2019-01-02T03:00:58.030Z,60.60
2019-01-02T03:03:47.683Z,60.30
2019-01-02T03:06:37.261Z,60.40
2019-01-02T03:09:26.941Z,60.40
2019-01-02T03:12:14.890Z,60.60
2019-01-02T03:15:03.220Z,60.60
2019-01-02T03:17:51.110Z,60.60
2019-01-02T03:20:39.330Z,60.50
2019-01-02T03:23:27.751Z,60.20
2019-01-02T03:26:15.892Z,60.60
2019-01-02T03:28:44.783Z,60.50
2019-01-02T03:34:03.554Z,60.40
2019-01-02T03:36:51.704Z,60.40
2019-01-02T03:39:39.642Z,60.30
2019-01-02T03:42:27.772Z,60.40
2019-01-02T03:45:16.914Z,60.30
2019-01-02T03:48:05.090Z,60.30
2019-01-02T03:50:53.343Z,60.50
2019-01-02T03:53:41.291Z,60.50
2019-01-02T03:56:29.179Z,60.50
2019-01-02T03:59:17.678Z,60.60
2019-01-02T04:02:05.830Z,60.40
2019-01-02T04:04:54.094Z,60.30
2019-01-02T04:07:43.162Z,60.40
2019-01-02T04:10:31.070Z,59.90
2019-01-02T04:13:18.947Z,61.10
2019-01-02T04:16:06.850Z,60.30
2019-01-02T04:18:54.764Z,60.10
2019-01-02T04:21:42.681Z,60.20
2019-01-02T04:24:30.616Z,59.90
2019-01-02T04:27:18.504Z,60.10
2019-01-02T04:30:07.510Z,59.90
2019-01-02T04:32:55.642Z,59.80
2019-01-02T04:35:43.806Z,59.90
2019-01-02T04:38:31.769Z,60.00
2019-01-02T04:41:12.379Z,59.90
2019-01-02T04:43:53.758Z,59.80
2019-01-02T04:46:22.657Z,59.70
2019-01-02T04:48:51.217Z,59.80
2019-01-02T04:51:39.390Z,59.80
2019-01-02T04:54:27.519Z,59.80
2019-01-02T04:57:15.670Z,59.70
2019-01-02T05:00:04.470Z,59.80
2019-01-02T05:02:33.286Z,59.90
2019-01-02T05:05:21.453Z,59.90
2019-01-02T05:08:09.570Z,60.50
2019-01-02T05:10:57.499Z,60.00
2019-01-02T05:13:45.411Z,59.90
2019-01-02T05:16:33.322Z,60.00
2019-01-02T05:19:21.249Z,60.00
2019-01-02T05:22:09.439Z,60.00
2019-01-02T05:24:57.578Z,60.20
2019-01-02T05:27:45.491Z,59.80
2019-01-02T05:30:26.644Z,59.90
2019-01-02T05:32:55.523Z,59.70
2019-01-02T05:35:24.379Z,59.90
2019-01-02T08:23:20.253Z,58.70
2019-01-02T08:47:24.464Z,59.30
2019-01-02T08:50:21.675Z,59.30
2019-01-02T08:53:02.295Z,59.60
2019-01-02T08:56:09.742Z,59.70
2019-01-02T08:59:01.274Z,59.60
2019-01-02T09:02:08.523Z,59.40
2019-01-02T09:05:07.585Z,59.20
2019-01-02T09:08:14.861Z,59.20
2019-01-02T09:11:22.422Z,59.00
2019-01-02T09:14:18.920Z,59.00
2019-01-02T09:17:26.370Z,58.80
2019-01-02T09:20:33.581Z,59.00
2019-01-02T10:26:08.436Z,53.30
2019-01-02T10:42:11.189Z,52.20
2019-01-02T10:52:18.939Z,51.30
2019-01-02T10:55:42.306Z,51.20
2019-01-02T11:25:58.960Z,49.40
2019-01-02T11:29:06.427Z,48.50
2019-01-02T11:32:13.613Z,45.80
2019-01-02T11:35:20.842Z,43.60
2019-01-02T11:38:15.278Z,41.40
2019-01-02T11:41:22.775Z,39.50
2019-01-02T11:44:30.284Z,37.60
2019-01-02T11:47:18.507Z,36.10
2019-01-02T11:49:59.523Z,34.90
2019-01-02T11:52:40.643Z,32.70
2019-01-02T11:55:21.567Z,30.90
2019-01-02T11:58:02.271Z,29.50
2019-01-02T12:00:30.994Z,28.50
2019-01-02T12:33:37.303Z,23.60
2019-01-02T12:36:05.894Z,23.40
2019-01-02T12:43:09.513Z,23.00
2019-01-02T12:45:38.925Z,22.80
2019-01-02T12:51:29.695Z,23.20
2019-01-02T12:53:58.638Z,22.80
2019-01-02T12:56:27.218Z,22.70
2019-01-02T13:20:16.594Z,26.10
2019-01-02T13:23:06.840Z,29.30
2019-01-02T13:33:00.027Z,35.50
2019-01-02T13:39:08.014Z,32.90
2019-01-02T13:42:15.482Z,31.90
2019-01-02T13:45:10.422Z,33.20
2019-01-02T13:48:02.482Z,34.10
2019-01-02T13:50:43.619Z,34.50
2019-01-02T13:53:24.740Z,34.60
2019-01-02T13:56:06.091Z,35.10
2019-01-02T13:58:46.595Z,35.20
2019-01-02T14:01:27.795Z,35.90
2019-01-02T14:04:08.602Z,37.20
2019-01-02T14:06:49.254Z,37.30
2019-01-02T14:09:30.363Z,37.40
2019-01-02T14:12:11.704Z,37.80
2019-01-02T14:14:52.346Z,38.60
2019-01-02T14:17:32.942Z,39.50
2019-01-02T14:20:13.502Z,40.20
2019-01-02T14:22:54.135Z,39.70
2019-01-02T14:25:34.583Z,39.00
2019-01-02T14:28:15.514Z,38.60
2019-01-02T14:30:56.171Z,39.30
2019-01-02T14:33:36.537Z,40.70
2019-01-02T14:36:17.729Z,42.00
2019-01-02T14:38:58.291Z,43.20
2019-01-02T14:41:39.463Z,44.40
2019-01-02T14:44:20.444Z,45.40
2019-01-02T14:47:01.260Z,46.10
2019-01-02T14:49:41.633Z,46.60
2019-01-02T14:52:22.433Z,47.00
2019-01-02T14:55:03.064Z,47.40
2019-01-02T14:57:43.787Z,47.60
2019-01-02T15:00:25.080Z,47.70
2019-01-02T15:03:06.204Z,48.00
2019-01-02T15:05:46.600Z,48.30
2019-01-02T15:08:27.595Z,49.20
2019-01-02T15:11:08.454Z,49.00
2019-01-02T15:13:49.127Z,49.30
2019-01-02T15:16:29.874Z,49.70
2019-01-02T15:19:10.764Z,50.00
2019-01-02T15:21:51.656Z,50.10
2019-01-02T15:24:32.223Z,50.40
2019-01-02T15:27:13.087Z,50.50
2019-01-02T15:29:54.075Z,50.70
2019-01-02T15:32:34.758Z,50.80
2019-01-02T15:35:15.337Z,50.90
2019-01-02T15:37:56.055Z,51.00
2019-01-02T15:40:37.314Z,51.10
2019-01-02T15:43:17.899Z,51.10
2019-01-02T15:45:58.795Z,51.30
2019-01-02T15:48:39.859Z,51.30
2019-01-02T15:51:21.077Z,51.40
2019-01-02T15:54:02.094Z,51.50
2019-01-02T15:56:43.171Z,51.50
2019-01-02T15:59:24.327Z,51.60
2019-01-02T16:02:05.331Z,51.60
2019-01-02T16:04:46.385Z,51.60
2019-01-02T16:07:27.073Z,51.70
2019-01-02T16:10:08.149Z,51.80
2019-01-02T16:12:49.361Z,51.80
2019-01-02T16:15:29.968Z,51.80
2019-01-02T16:21:03.026Z,51.90
2019-01-02T16:23:31.858Z,51.80
2019-01-02T16:26:00.450Z,51.90
2019-01-02T16:28:29.061Z,51.90
2019-01-02T16:31:10.017Z,51.80
2019-01-02T16:36:42.723Z,51.90
2019-01-02T16:39:11.283Z,51.90
2019-01-02T16:41:40.426Z,51.90
2019-01-02T16:44:09.007Z,51.80
2019-01-02T16:46:57.521Z,51.80
2019-01-02T16:49:26.386Z,51.60
2019-01-02T16:51:55.353Z,51.80
2019-01-02T16:55:01.055Z,51.70
2019-01-02T16:57:56.400Z,51.80
2019-01-02T17:00:25.293Z,51.80
2019-01-02T17:05:50.431Z,52.10
2019-01-02T17:08:23.653Z,52.00
2019-01-02T17:17:48.480Z,52.40
2019-01-02T17:34:29.957Z,52.80
2019-01-02T17:36:58.585Z,52.80
2019-01-02T17:39:27.727Z,52.80
2019-01-02T17:41:56.827Z,52.90
2019-01-02T17:58:44.515Z,53.30
2019-01-02T18:04:04.395Z,53.20
2019-01-02T18:06:33.622Z,53.40
2019-01-02T18:09:02.841Z,53.30
2019-01-02T18:11:32.119Z,53.30
2019-01-02T18:14:01.143Z,53.40
2019-01-02T18:16:30.109Z,53.40
2019-01-02T18:23:22.507Z,53.40
2019-01-02T18:25:51.366Z,53.50
2019-01-02T18:28:20.002Z,53.60
2019-01-02T18:31:43.662Z,53.90
2019-01-02T18:39:54.012Z,53.90
2019-01-02T18:43:17.493Z,54.00
2019-01-02T18:45:51.591Z,53.90
2019-01-02T18:49:15.133Z,54.10
2019-01-02T18:55:24.848Z,54.30
2019-01-02T18:58:13.149Z,54.40
2019-01-02T19:00:42.313Z,54.30
2019-01-02T19:03:49.061Z,54.10
2019-01-02T19:09:47.569Z,54.20
2019-01-02T19:15:34.707Z,54.40
2019-01-02T19:18:15.879Z,54.30
2019-01-02T19:20:56.978Z,54.50
2019-01-02T19:23:37.981Z,54.40
2019-01-02T19:26:19.223Z,54.20
2019-01-02T19:29:00.807Z,54.20
2019-01-02T19:31:42.041Z,54.10
2019-01-02T19:34:22.635Z,54.20
2019-01-02T19:37:03.926Z,54.30
2019-01-02T19:39:44.829Z,54.20
2019-01-02T19:42:25.863Z,54.30
2019-01-02T19:45:06.831Z,54.30
2019-01-02T19:47:47.810Z,54.30
2019-01-02T19:50:28.713Z,54.30
2019-01-02T19:53:09.413Z,54.40
2019-01-02T19:55:50.197Z,54.60
2019-01-02T19:58:30.956Z,54.60
2019-01-02T20:00:59.576Z,54.60
2019-01-02T20:03:47.478Z,54.80
2019-01-02T20:06:35.402Z,54.90
2019-01-02T20:09:23.271Z,54.80
2019-01-02T20:12:04.499Z,54.90
2019-01-02T20:14:45.430Z,54.90
2019-01-02T20:17:26.269Z,54.90
2019-01-02T20:20:07.763Z,55.10
2019-01-02T20:22:48.533Z,53.50
2019-01-02T20:25:29.164Z,48.10
2019-01-02T20:28:09.834Z,47.90
2019-01-02T20:30:50.601Z,47.20
2019-01-02T20:33:31.397Z,47.30
2019-01-02T20:36:12.040Z,46.00
2019-01-02T20:38:53.004Z,45.50
2019-01-02T20:41:33.939Z,43.80
2019-01-02T20:44:14.823Z,44.20
2019-01-02T20:46:44.000Z,44.20
2019-01-02T20:49:32.139Z,44.30
2019-01-02T20:52:20.026Z,43.70
2019-01-02T20:55:08.059Z,43.80
2019-01-02T20:57:56.254Z,44.80
2019-01-02T21:00:44.595Z,43.90
2019-01-02T21:03:32.859Z,43.60
2019-01-02T21:06:01.499Z,43.30
